メインページ
METAR-TAF:

METAR-TAF

空港 :

ヤクーツク空港

ヤクーツク, ロシア

緯度: 62-01N, 経度: 129-43E, 海抜: 103m

現時点の気象観測

当レポートは30分前の07:30(UTC)に作成
南/南東の風 2kt
気温 -16°C
湿度 55%
気圧 1019 hPa
視程10km以上
1,500メートル以下は雲なし、積乱雲なし

METAR: UEEE 190730Z 15001MPS CAVOK M16/M23 Q1019 R23L/450055 NOSIG RMK QFE755

時間: 17:00 (08:00 UTC)

予報

当レポートは3時間0分前の05:00(UTC)に作成
予報は19日の 06時(UTC)から 20日の 12時(UTC)まで有効
南東の風 6kt
視程10km以上
1,500メートル以下は雲なし、積乱雲なし

TAF: UEEE 190500Z 1906/2012 14003MPS CAVOK

4,000以上の空港の気象観測と天気予報(METAR報とTAF報)

利用可能な観測所は地図上に黄色い丸と赤い丸で示す。

丸の上にカーソルを重ねると観測所名を参照できる。

次にクリックすると気象観測と天気予報を参照できる。

マップの切り替え:黒色「×」印の緑ボタンをクリックして拡大、「-」印の緑ボタンをクリックして縮小、緑色の三角印をクリックして隣りの地図に切り替え


METAR-TAF: